Flight Track Log - Related Links

Times and Time Zones

All times are in EDT time to prevent confusion due to time zone crossing. See the N2960R flight status page for this flight to view local times or setup timezone preferences in your user account.


Time Position Orientation Groundspeed Altitude Reporting Facility
EDT Latitude Longitude Course Direction KTS MPH feet Rate Location/Type
Sat 03:10:36 PM 41.1314 -71.6981 255° West 100 115 3,800  Level Boston Center
Sat 03:11:36 PM 41.1242 -71.7328 255° West 99 114 4,500 433 Climbing Boston Center
Sat 03:12:13 PM 41.1194 -71.7550 254° West 114 131 4,500  Level Boston Center
Sat 03:12:38 PM 41.1133 -71.7744 247° West 127 146 4,500 -98 Level Boston Center
Sat 03:13:14 PM 41.1097 -71.8006 260° West 128 147 4,400 -98 Descending Boston Center
Sat 03:13:39 PM 41.1042 -71.8283 255° West 144 166 4,400  Level Boston Center
Sat 03:14:15 PM 41.0983 -71.8461 246° West 131 151 4,400 -100 Level Boston Center
Sat 03:14:39 PM 41.0931 -71.8700 254° West 152 175 4,300  Descending Boston Center
Sat 03:15:16 PM 41.0872 -71.8939 252° West 129 148 4,400 60 Climbing Boston Center
Sat 03:16:19 PM 41.0786 -71.9353 255° West 125 144 4,400  Level Boston Center
Sat 03:17:20 PM 41.0703 -71.9806 256° West 127 146 4,400  Level Boston Center
Sat 03:18:20 PM 41.0644 -72.0272 261° West 127 146 4,400  Level Boston Center
Sat 03:19:21 PM 41.0592 -72.0733 261° West 129 148 4,400  Level Boston Center
Sat 03:20:22 PM 41.0536 -72.1211 261° West 131 151 4,400  Level Boston Center
Sat 03:21:25 PM 41.0472 -72.1767 261° West 129 148 4,400 49 Level Boston Center
Sat 03:22:25 PM 41.0419 -72.2222 261° West 128 147 4,500  Climbing Boston Center
Sat 03:23:26 PM 41.0356 -72.2692 260° West 128 147 4,400 -48 Descending Boston Center
Sat 03:24:29 PM 41.0294 -72.3147 260° West 127 146 4,400 48 Level Boston Center
Sat 03:25:30 PM 41.0236 -72.3606 260° West 128 147 4,500 57 Climbing Boston Center
Sat 03:26:14 PM 41.0167 -72.4000 257° West 128 147 4,500  Level New York TRACON
Sat 03:27:14 PM 41.0167 -72.4500 270° West 125 144 4,500 50 Level New York TRACON
Sat 03:28:14 PM 41.0167 -72.4833 270° West 126 145 4,600 50 Climbing New York TRACON
Sat 03:29:14 PM 41.0167 -72.5333 270° West 123 142 4,600  Level New York TRACON
Sat 03:30:14 PM 41.0167 -72.5833 270° West 124 143 4,600 -50 Level New York TRACON
Sat 03:31:14 PM 41.0333 -72.6167 304° West 126 145 4,500  Descending New York TRACON
Sat 03:32:14 PM 41.0500 -72.6667 294° West 123 142 4,600  Climbing New York TRACON
Sat 03:33:14 PM 41.0500 -72.7167 270° West 126 145 4,500 -50 Descending New York TRACON
Sat 03:34:14 PM 41.0667 -72.7500 304° West 128 147 4,500 -29 Level New York TRACON
Sat 03:36:43 PM 41.0956 -72.8586 289° West 128 147 4,400 -29 Descending Boston Center
Sat 03:37:44 PM 41.1069 -72.9019 289° West 126 145 4,400 -347 Level Boston Center
Sat 03:38:44 PM 41.1189 -72.9542 287° West 124 143 3,700 -726 Descending Boston Center
Sat 03:39:48 PM 41.1431 -72.9897 312° West 135 155 2,900 -871 Descending Boston Center
Sat 03:40:48 PM 41.1558 -73.0328 292° West 134 154 1,900 -1,000 Descending Boston Center
Sat 03:41:48 PM 41.1667 -73.0736 289° West 124 143 900 -793 Descending Boston Center
Sat 03:42:49 PM 41.1769 -73.1056 293° West 111 128 300 -590 Descending Boston Center

Login

Don't have an account? Register now (free) for customized features, flight alerts, and more!